sensor_id;sensor_type;location;lat;lon;timestamp;P1;durP1;ratioP1;P2;durP2;ratioP2
809;SDS011;387;48.772;9.186;2023-04-15T00:01:56;9.57;;;5.07;;
809;SDS011;387;48.772;9.186;2023-04-15T00:04:23;8.77;;;5.60;;
809;SDS011;387;48.772;9.186;2023-04-15T00:06:52;9.00;;;5.17;;
809;SDS011;387;48.772;9.186;2023-04-15T00:09:19;9.67;;;4.93;;
809;SDS011;387;48.772;9.186;2023-04-15T00:11:45;10.63;;;5.60;;
809;SDS011;387;48.772;9.186;2023-04-15T00:14:11;16.10;;;6.30;;
809;SDS011;387;48.772;9.186;2023-04-15T00:16:37;12.33;;;5.23;;
809;SDS011;387;48.772;9.186;2023-04-15T00:19:03;12.80;;;5.60;;
809;SDS011;387;48.772;9.186;2023-04-15T00:21:29;9.67;;;4.70;;
809;SDS011;387;48.772;9.186;2023-04-15T00:23:55;8.07;;;4.70;;
809;SDS011;387;48.772;9.186;2023-04-15T00:26:21;9.63;;;4.87;;
809;SDS011;387;48.772;9.186;2023-04-15T00:28:47;8.47;;;4.23;;
809;SDS011;387;48.772;9.186;2023-04-15T00:31:12;9.90;;;4.60;;
809;SDS011;387;48.772;9.186;2023-04-15T00:33:38;8.50;;;4.80;;
809;SDS011;387;48.772;9.186;2023-04-15T00:36:05;8.90;;;4.43;;
809;SDS011;387;48.772;9.186;2023-04-15T00:38:31;12.10;;;5.53;;
809;SDS011;387;48.772;9.186;2023-04-15T00:40:56;10.60;;;4.73;;
809;SDS011;387;48.772;9.186;2023-04-15T00:43:22;7.90;;;4.43;;
809;SDS011;387;48.772;9.186;2023-04-15T00:45:48;9.30;;;5.30;;
809;SDS011;387;48.772;9.186;2023-04-15T00:48:16;8.10;;;4.53;;
809;SDS011;387;48.772;9.186;2023-04-15T00:50:42;9.87;;;4.60;;
809;SDS011;387;48.772;9.186;2023-04-15T00:53:07;6.30;;;3.93;;
809;SDS011;387;48.772;9.186;2023-04-15T00:55:33;7.50;;;4.37;;
809;SDS011;387;48.772;9.186;2023-04-15T00:58:00;9.43;;;4.97;;
809;SDS011;387;48.772;9.186;2023-04-15T01:00:25;11.10;;;5.33;;
809;SDS011;387;48.772;9.186;2023-04-15T01:02:51;10.90;;;4.93;;
809;SDS011;387;48.772;9.186;2023-04-15T01:05:17;16.83;;;5.30;;
809;SDS011;387;48.772;9.186;2023-04-15T01:07:43;7.40;;;4.23;;
809;SDS011;387;48.772;9.186;2023-04-15T01:10:09;9.57;;;4.57;;
809;SDS011;387;48.772;9.186;2023-04-15T01:12:34;8.17;;;4.83;;
809;SDS011;387;48.772;9.186;2023-04-15T01:15:01;8.93;;;5.10;;
809;SDS011;387;48.772;9.186;2023-04-15T01:17:28;8.60;;;4.60;;
809;SDS011;387;48.772;9.186;2023-04-15T01:19:54;6.97;;;4.50;;
809;SDS011;387;48.772;9.186;2023-04-15T01:22:22;13.60;;;5.00;;
809;SDS011;387;48.772;9.186;2023-04-15T01:25:09;9.77;;;4.97;;
809;SDS011;387;48.772;9.186;2023-04-15T01:27:36;9.30;;;4.37;;
809;SDS011;387;48.772;9.186;2023-04-15T01:30:05;7.10;;;4.90;;
809;SDS011;387;48.772;9.186;2023-04-15T01:32:31;6.90;;;4.70;;
809;SDS011;387;48.772;9.186;2023-04-15T01:34:57;7.30;;;4.37;;
809;SDS011;387;48.772;9.186;2023-04-15T01:37:23;11.20;;;5.43;;
809;SDS011;387;48.772;9.186;2023-04-15T01:39:49;10.67;;;4.80;;
809;SDS011;387;48.772;9.186;2023-04-15T01:42:14;6.93;;;4.33;;
809;SDS011;387;48.772;9.186;2023-04-15T01:44:40;10.57;;;4.70;;
809;SDS011;387;48.772;9.186;2023-04-15T01:47:05;13.93;;;6.87;;
809;SDS011;387;48.772;9.186;2023-04-15T01:49:31;16.03;;;8.03;;
809;SDS011;387;48.772;9.186;2023-04-15T01:51:56;9.97;;;5.20;;
809;SDS011;387;48.772;9.186;2023-04-15T01:54:22;5.57;;;3.93;;
809;SDS011;387;48.772;9.186;2023-04-15T01:56:48;13.40;;;4.53;;
809;SDS011;387;48.772;9.186;2023-04-15T01:59:13;8.00;;;4.53;;
809;SDS011;387;48.772;9.186;2023-04-15T02:01:39;6.93;;;4.17;;
809;SDS011;387;48.772;9.186;2023-04-15T02:04:05;12.47;;;4.80;;
809;SDS011;387;48.772;9.186;2023-04-15T02:06:31;8.10;;;4.57;;
809;SDS011;387;48.772;9.186;2023-04-15T02:08:57;8.57;;;4.37;;
809;SDS011;387;48.772;9.186;2023-04-15T02:11:23;14.33;;;4.47;;
809;SDS011;387;48.772;9.186;2023-04-15T02:13:48;9.70;;;4.80;;
809;SDS011;387;48.772;9.186;2023-04-15T02:16:15;14.40;;;4.90;;
809;SDS011;387;48.772;9.186;2023-04-15T02:18:42;12.90;;;4.37;;
809;SDS011;387;48.772;9.186;2023-04-15T02:21:09;8.17;;;4.40;;
809;SDS011;387;48.772;9.186;2023-04-15T02:23:34;11.27;;;4.70;;
809;SDS011;387;48.772;9.186;2023-04-15T02:26:00;12.40;;;4.67;;
809;SDS011;387;48.772;9.186;2023-04-15T02:28:25;12.20;;;4.70;;
809;SDS011;387;48.772;9.186;2023-04-15T02:30:51;7.77;;;4.70;;
809;SDS011;387;48.772;9.186;2023-04-15T02:33:18;10.40;;;4.67;;
809;SDS011;387;48.772;9.186;2023-04-15T02:35:44;8.67;;;4.53;;
809;SDS011;387;48.772;9.186;2023-04-15T02:38:10;9.07;;;4.10;;
809;SDS011;387;48.772;9.186;2023-04-15T02:40:36;9.43;;;4.40;;
809;SDS011;387;48.772;9.186;2023-04-15T02:43:01;10.63;;;4.53;;
809;SDS011;387;48.772;9.186;2023-04-15T02:45:27;10.87;;;5.20;;
809;SDS011;387;48.772;9.186;2023-04-15T02:47:53;12.80;;;5.40;;
809;SDS011;387;48.772;9.186;2023-04-15T02:50:19;8.57;;;4.50;;
809;SDS011;387;48.772;9.186;2023-04-15T02:52:45;7.27;;;4.20;;
809;SDS011;387;48.772;9.186;2023-04-15T02:55:10;10.40;;;4.80;;
809;SDS011;387;48.772;9.186;2023-04-15T02:57:36;9.30;;;4.10;;
809;SDS011;387;48.772;9.186;2023-04-15T03:00:03;8.80;;;4.50;;
809;SDS011;387;48.772;9.186;2023-04-15T03:02:33;8.27;;;4.40;;
809;SDS011;387;48.772;9.186;2023-04-15T03:05:02;7.93;;;4.57;;
809;SDS011;387;48.772;9.186;2023-04-15T03:07:30;10.63;;;5.27;;
809;SDS011;387;48.772;9.186;2023-04-15T03:09:55;10.87;;;4.40;;
809;SDS011;387;48.772;9.186;2023-04-15T03:12:21;7.63;;;3.80;;
809;SDS011;387;48.772;9.186;2023-04-15T03:14:47;8.67;;;4.47;;
809;SDS011;387;48.772;9.186;2023-04-15T03:17:13;10.13;;;4.07;;
809;SDS011;387;48.772;9.186;2023-04-15T03:19:38;11.50;;;4.30;;
809;SDS011;387;48.772;9.186;2023-04-15T03:22:04;8.53;;;4.20;;
809;SDS011;387;48.772;9.186;2023-04-15T03:24:29;10.03;;;4.63;;
809;SDS011;387;48.772;9.186;2023-04-15T03:26:55;13.77;;;4.20;;
809;SDS011;387;48.772;9.186;2023-04-15T03:29:21;7.93;;;4.00;;
809;SDS011;387;48.772;9.186;2023-04-15T03:31:47;8.93;;;4.43;;
809;SDS011;387;48.772;9.186;2023-04-15T03:34:13;11.90;;;5.57;;
809;SDS011;387;48.772;9.186;2023-04-15T03:36:39;8.37;;;4.00;;
809;SDS011;387;48.772;9.186;2023-04-15T03:39:04;8.20;;;4.90;;
809;SDS011;387;48.772;9.186;2023-04-15T03:41:30;11.27;;;4.57;;
809;SDS011;387;48.772;9.186;2023-04-15T03:43:56;10.63;;;4.60;;
809;SDS011;387;48.772;9.186;2023-04-15T03:46:22;8.47;;;4.63;;
809;SDS011;387;48.772;9.186;2023-04-15T03:48:47;6.43;;;4.07;;
809;SDS011;387;48.772;9.186;2023-04-15T03:51:13;6.60;;;4.27;;
809;SDS011;387;48.772;9.186;2023-04-15T03:53:39;5.33;;;3.73;;
809;SDS011;387;48.772;9.186;2023-04-15T03:56:04;7.00;;;4.13;;
809;SDS011;387;48.772;9.186;2023-04-15T03:58:30;6.70;;;4.03;;
809;SDS011;387;48.772;9.186;2023-04-15T04:00:55;9.20;;;4.60;;
809;SDS011;387;48.772;9.186;2023-04-15T04:03:21;6.87;;;4.30;;
809;SDS011;387;48.772;9.186;2023-04-15T04:05:47;13.43;;;5.10;;
809;SDS011;387;48.772;9.186;2023-04-15T04:08:12;7.33;;;3.97;;
809;SDS011;387;48.772;9.186;2023-04-15T04:10:40;7.60;;;4.00;;
809;SDS011;387;48.772;9.186;2023-04-15T04:13:05;7.10;;;4.10;;
809;SDS011;387;48.772;9.186;2023-04-15T04:15:31;10.97;;;4.50;;
809;SDS011;387;48.772;9.186;2023-04-15T04:17:57;13.40;;;4.40;;
809;SDS011;387;48.772;9.186;2023-04-15T04:20:22;6.53;;;4.10;;
809;SDS011;387;48.772;9.186;2023-04-15T04:22:48;8.00;;;3.90;;
809;SDS011;387;48.772;9.186;2023-04-15T04:25:14;5.67;;;3.40;;
809;SDS011;387;48.772;9.186;2023-04-15T04:27:40;8.23;;;4.10;;
809;SDS011;387;48.772;9.186;2023-04-15T04:30:06;5.93;;;3.60;;
809;SDS011;387;48.772;9.186;2023-04-15T04:32:32;8.63;;;4.03;;
809;SDS011;387;48.772;9.186;2023-04-15T04:34:57;10.60;;;3.03;;
809;SDS011;387;48.772;9.186;2023-04-15T04:37:23;6.33;;;3.20;;
809;SDS011;387;48.772;9.186;2023-04-15T04:39:49;4.10;;;2.97;;
809;SDS011;387;48.772;9.186;2023-04-15T04:42:14;9.80;;;3.93;;
809;SDS011;387;48.772;9.186;2023-04-15T04:44:40;7.10;;;4.00;;
809;SDS011;387;48.772;9.186;2023-04-15T04:47:06;16.77;;;4.30;;
809;SDS011;387;48.772;9.186;2023-04-15T04:49:32;5.90;;;3.73;;
809;SDS011;387;48.772;9.186;2023-04-15T04:51:58;9.73;;;4.80;;
809;SDS011;387;48.772;9.186;2023-04-15T04:54:23;10.70;;;4.27;;
809;SDS011;387;48.772;9.186;2023-04-15T04:56:49;9.30;;;4.37;;
809;SDS011;387;48.772;9.186;2023-04-15T04:59:15;9.03;;;3.80;;
809;SDS011;387;48.772;9.186;2023-04-15T05:01:41;6.83;;;3.50;;
809;SDS011;387;48.772;9.186;2023-04-15T05:04:06;8.80;;;4.10;;
809;SDS011;387;48.772;9.186;2023-04-15T05:06:32;10.63;;;4.60;;
809;SDS011;387;48.772;9.186;2023-04-15T05:08:59;6.73;;;3.90;;
809;SDS011;387;48.772;9.186;2023-04-15T05:11:25;11.40;;;4.57;;
809;SDS011;387;48.772;9.186;2023-04-15T05:13:52;7.80;;;4.07;;
809;SDS011;387;48.772;9.186;2023-04-15T05:16:17;9.50;;;5.37;;
809;SDS011;387;48.772;9.186;2023-04-15T05:18:43;8.17;;;4.00;;
809;SDS011;387;48.772;9.186;2023-04-15T05:21:09;10.87;;;4.30;;
809;SDS011;387;48.772;9.186;2023-04-15T05:23:35;8.57;;;4.10;;
809;SDS011;387;48.772;9.186;2023-04-15T05:26:01;10.43;;;5.67;;
809;SDS011;387;48.772;9.186;2023-04-15T05:28:28;7.50;;;4.90;;
809;SDS011;387;48.772;9.186;2023-04-15T05:30:53;7.10;;;4.23;;
809;SDS011;387;48.772;9.186;2023-04-15T05:33:19;14.50;;;5.17;;
809;SDS011;387;48.772;9.186;2023-04-15T05:35:44;8.73;;;5.10;;
809;SDS011;387;48.772;9.186;2023-04-15T05:38:10;18.93;;;5.50;;
809;SDS011;387;48.772;9.186;2023-04-15T05:40:36;7.43;;;3.90;;
809;SDS011;387;48.772;9.186;2023-04-15T05:43:02;10.90;;;5.27;;
809;SDS011;387;48.772;9.186;2023-04-15T05:45:27;10.80;;;5.97;;
809;SDS011;387;48.772;9.186;2023-04-15T05:47:53;8.00;;;4.70;;
809;SDS011;387;48.772;9.186;2023-04-15T05:50:19;9.17;;;4.23;;
809;SDS011;387;48.772;9.186;2023-04-15T05:52:45;15.93;;;4.67;;
809;SDS011;387;48.772;9.186;2023-04-15T05:55:11;9.17;;;4.53;;
809;SDS011;387;48.772;9.186;2023-04-15T05:57:36;9.10;;;4.33;;
809;SDS011;387;48.772;9.186;2023-04-15T06:00:03;10.73;;;3.93;;
809;SDS011;387;48.772;9.186;2023-04-15T06:02:29;10.30;;;4.30;;
809;SDS011;387;48.772;9.186;2023-04-15T06:04:55;8.40;;;4.67;;
809;SDS011;387;48.772;9.186;2023-04-15T06:07:21;7.97;;;4.50;;
809;SDS011;387;48.772;9.186;2023-04-15T06:09:47;6.73;;;4.70;;
809;SDS011;387;48.772;9.186;2023-04-15T06:12:13;6.70;;;4.67;;
809;SDS011;387;48.772;9.186;2023-04-15T06:14:39;9.13;;;4.90;;
809;SDS011;387;48.772;9.186;2023-04-15T06:17:05;7.30;;;4.73;;
809;SDS011;387;48.772;9.186;2023-04-15T06:19:31;9.67;;;5.17;;
809;SDS011;387;48.772;9.186;2023-04-15T06:21:57;11.13;;;4.97;;
809;SDS011;387;48.772;9.186;2023-04-15T06:24:23;7.60;;;4.93;;
809;SDS011;387;48.772;9.186;2023-04-15T06:26:49;6.77;;;4.20;;
809;SDS011;387;48.772;9.186;2023-04-15T06:29:14;8.40;;;4.40;;
809;SDS011;387;48.772;9.186;2023-04-15T06:31:40;9.80;;;4.70;;
809;SDS011;387;48.772;9.186;2023-04-15T06:34:05;5.37;;;3.97;;
809;SDS011;387;48.772;9.186;2023-04-15T06:36:31;10.40;;;5.80;;
809;SDS011;387;48.772;9.186;2023-04-15T06:38:57;8.63;;;4.47;;
809;SDS011;387;48.772;9.186;2023-04-15T06:41:23;11.83;;;5.30;;
809;SDS011;387;48.772;9.186;2023-04-15T06:43:48;12.53;;;6.30;;
809;SDS011;387;48.772;9.186;2023-04-15T06:46:14;8.83;;;5.97;;
809;SDS011;387;48.772;9.186;2023-04-15T06:48:40;10.53;;;7.30;;
809;SDS011;387;48.772;9.186;2023-04-15T06:51:06;12.97;;;7.00;;
809;SDS011;387;48.772;9.186;2023-04-15T06:53:32;11.70;;;7.40;;
809;SDS011;387;48.772;9.186;2023-04-15T06:55:57;14.07;;;7.33;;
809;SDS011;387;48.772;9.186;2023-04-15T06:58:23;11.23;;;6.60;;
809;SDS011;387;48.772;9.186;2023-04-15T07:00:49;15.27;;;7.17;;
809;SDS011;387;48.772;9.186;2023-04-15T07:03:15;13.17;;;7.20;;
809;SDS011;387;48.772;9.186;2023-04-15T07:05:40;10.70;;;5.90;;
809;SDS011;387;48.772;9.186;2023-04-15T07:08:06;22.50;;;7.50;;
809;SDS011;387;48.772;9.186;2023-04-15T07:10:32;16.17;;;7.47;;
809;SDS011;387;48.772;9.186;2023-04-15T07:12:58;14.70;;;6.63;;
809;SDS011;387;48.772;9.186;2023-04-15T07:15:24;15.67;;;7.53;;
809;SDS011;387;48.772;9.186;2023-04-15T07:17:49;13.93;;;6.70;;
809;SDS011;387;48.772;9.186;2023-04-15T07:20:15;13.67;;;6.90;;
809;SDS011;387;48.772;9.186;2023-04-15T07:22:40;11.57;;;6.80;;
809;SDS011;387;48.772;9.186;2023-04-15T07:25:06;11.20;;;6.30;;
809;SDS011;387;48.772;9.186;2023-04-15T07:27:33;11.73;;;7.00;;
809;SDS011;387;48.772;9.186;2023-04-15T07:29:58;12.60;;;6.73;;
809;SDS011;387;48.772;9.186;2023-04-15T07:32:24;11.83;;;5.90;;
809;SDS011;387;48.772;9.186;2023-04-15T07:34:50;13.37;;;7.10;;
809;SDS011;387;48.772;9.186;2023-04-15T07:37:15;15.33;;;6.57;;
809;SDS011;387;48.772;9.186;2023-04-15T07:39:41;13.07;;;6.90;;
809;SDS011;387;48.772;9.186;2023-04-15T07:42:07;12.63;;;6.67;;
809;SDS011;387;48.772;9.186;2023-04-15T07:44:33;14.37;;;7.03;;
809;SDS011;387;48.772;9.186;2023-04-15T07:46:59;13.10;;;7.33;;
809;SDS011;387;48.772;9.186;2023-04-15T07:49:25;12.60;;;6.83;;
809;SDS011;387;48.772;9.186;2023-04-15T07:51:51;15.67;;;7.50;;
809;SDS011;387;48.772;9.186;2023-04-15T07:54:17;11.90;;;6.23;;
809;SDS011;387;48.772;9.186;2023-04-15T07:56:43;11.40;;;5.60;;
809;SDS011;387;48.772;9.186;2023-04-15T07:59:08;9.43;;;5.90;;
809;SDS011;387;48.772;9.186;2023-04-15T08:01:34;15.63;;;6.57;;
809;SDS011;387;48.772;9.186;2023-04-15T08:04:00;16.63;;;5.97;;
809;SDS011;387;48.772;9.186;2023-04-15T08:06:27;13.83;;;6.73;;
809;SDS011;387;48.772;9.186;2023-04-15T08:08:52;12.20;;;6.00;;
809;SDS011;387;48.772;9.186;2023-04-15T08:11:19;10.70;;;6.43;;
809;SDS011;387;48.772;9.186;2023-04-15T08:13:45;11.07;;;6.60;;
809;SDS011;387;48.772;9.186;2023-04-15T08:18:43;12.10;;;6.20;;
809;SDS011;387;48.772;9.186;2023-04-15T08:21:09;10.93;;;6.67;;
809;SDS011;387;48.772;9.186;2023-04-15T08:23:35;8.43;;;5.90;;
809;SDS011;387;48.772;9.186;2023-04-15T08:26:01;9.30;;;5.47;;
809;SDS011;387;48.772;9.186;2023-04-15T08:28:27;13.27;;;6.90;;
809;SDS011;387;48.772;9.186;2023-04-15T08:30:53;9.03;;;5.50;;
809;SDS011;387;48.772;9.186;2023-04-15T08:33:18;10.93;;;6.33;;
809;SDS011;387;48.772;9.186;2023-04-15T08:35:44;13.83;;;6.10;;
809;SDS011;387;48.772;9.186;2023-04-15T08:38:11;10.13;;;4.97;;
809;SDS011;387;48.772;9.186;2023-04-15T08:40:43;6.30;;;4.70;;
809;SDS011;387;48.772;9.186;2023-04-15T08:43:11;9.83;;;5.07;;
809;SDS011;387;48.772;9.186;2023-04-15T08:45:42;8.60;;;4.90;;
809;SDS011;387;48.772;9.186;2023-04-15T08:48:10;11.77;;;5.20;;
809;SDS011;387;48.772;9.186;2023-04-15T08:50:40;11.30;;;5.50;;
809;SDS011;387;48.772;9.186;2023-04-15T08:53:06;11.20;;;4.90;;
809;SDS011;387;48.772;9.186;2023-04-15T08:55:32;7.37;;;4.73;;
809;SDS011;387;48.772;9.186;2023-04-15T08:58:01;8.83;;;5.00;;
809;SDS011;387;48.772;9.186;2023-04-15T09:00:27;9.53;;;5.67;;
809;SDS011;387;48.772;9.186;2023-04-15T09:02:54;11.70;;;5.93;;
809;SDS011;387;48.772;9.186;2023-04-15T09:05:20;5.77;;;4.40;;
809;SDS011;387;48.772;9.186;2023-04-15T09:07:47;9.53;;;4.47;;
809;SDS011;387;48.772;9.186;2023-04-15T09:10:12;12.90;;;4.57;;
809;SDS011;387;48.772;9.186;2023-04-15T09:12:38;7.47;;;4.80;;
809;SDS011;387;48.772;9.186;2023-04-15T09:15:04;9.17;;;4.57;;
809;SDS011;387;48.772;9.186;2023-04-15T09:17:31;8.83;;;4.40;;
809;SDS011;387;48.772;9.186;2023-04-15T09:20:10;7.60;;;4.70;;
809;SDS011;387;48.772;9.186;2023-04-15T09:22:38;8.00;;;4.87;;
809;SDS011;387;48.772;9.186;2023-04-15T09:25:26;15.47;;;5.93;;
809;SDS011;387;48.772;9.186;2023-04-15T09:28:01;8.70;;;4.83;;
809;SDS011;387;48.772;9.186;2023-04-15T09:30:27;8.10;;;4.30;;
809;SDS011;387;48.772;9.186;2023-04-15T09:32:57;9.27;;;4.20;;
809;SDS011;387;48.772;9.186;2023-04-15T09:35:24;7.13;;;4.43;;
809;SDS011;387;48.772;9.186;2023-04-15T09:37:51;10.47;;;3.90;;
809;SDS011;387;48.772;9.186;2023-04-15T09:40:34;6.00;;;3.90;;
809;SDS011;387;48.772;9.186;2023-04-15T09:43:04;8.57;;;3.87;;
809;SDS011;387;48.772;9.186;2023-04-15T09:45:32;8.00;;;4.03;;
809;SDS011;387;48.772;9.186;2023-04-15T09:47:58;5.90;;;3.90;;
809;SDS011;387;48.772;9.186;2023-04-15T09:50:39;7.33;;;3.80;;
809;SDS011;387;48.772;9.186;2023-04-15T09:53:08;9.97;;;4.27;;
809;SDS011;387;48.772;9.186;2023-04-15T09:55:42;8.70;;;3.93;;
809;SDS011;387;48.772;9.186;2023-04-15T09:58:16;7.57;;;4.20;;
809;SDS011;387;48.772;9.186;2023-04-15T10:00:43;9.23;;;4.63;;
809;SDS011;387;48.772;9.186;2023-04-15T10:03:18;7.77;;;4.27;;
809;SDS011;387;48.772;9.186;2023-04-15T10:05:47;5.87;;;4.00;;
809;SDS011;387;48.772;9.186;2023-04-15T10:08:15;8.40;;;3.87;;
809;SDS011;387;48.772;9.186;2023-04-15T10:10:43;5.00;;;3.27;;
809;SDS011;387;48.772;9.186;2023-04-15T10:13:11;5.40;;;3.20;;
809;SDS011;387;48.772;9.186;2023-04-15T10:15:42;8.40;;;3.47;;
809;SDS011;387;48.772;9.186;2023-04-15T10:18:10;4.93;;;3.83;;
809;SDS011;387;48.772;9.186;2023-04-15T10:20:39;6.30;;;4.13;;
809;SDS011;387;48.772;9.186;2023-04-15T10:23:06;9.27;;;4.30;;
809;SDS011;387;48.772;9.186;2023-04-15T10:25:33;8.20;;;3.57;;
809;SDS011;387;48.772;9.186;2023-04-15T10:28:00;6.83;;;3.43;;
809;SDS011;387;48.772;9.186;2023-04-15T10:30:27;8.83;;;4.20;;
809;SDS011;387;48.772;9.186;2023-04-15T10:32:53;9.43;;;3.90;;
809;SDS011;387;48.772;9.186;2023-04-15T10:35:20;5.80;;;4.00;;
809;SDS011;387;48.772;9.186;2023-04-15T10:37:47;8.17;;;4.13;;
809;SDS011;387;48.772;9.186;2023-04-15T10:42:56;7.37;;;4.67;;
809;SDS011;387;48.772;9.186;2023-04-15T10:45:26;12.60;;;5.00;;
809;SDS011;387;48.772;9.186;2023-04-15T10:47:56;6.07;;;4.53;;
809;SDS011;387;48.772;9.186;2023-04-15T10:50:25;8.00;;;3.97;;
809;SDS011;387;48.772;9.186;2023-04-15T10:52:54;9.00;;;4.10;;
809;SDS011;387;48.772;9.186;2023-04-15T10:55:21;5.27;;;3.80;;
809;SDS011;387;48.772;9.186;2023-04-15T10:57:57;5.57;;;3.73;;
809;SDS011;387;48.772;9.186;2023-04-15T11:00:25;5.20;;;3.30;;
809;SDS011;387;48.772;9.186;2023-04-15T11:03:06;6.20;;;3.80;;
809;SDS011;387;48.772;9.186;2023-04-15T11:08:07;5.93;;;3.63;;
809;SDS011;387;48.772;9.186;2023-04-15T11:13:03;6.20;;;4.20;;
809;SDS011;387;48.772;9.186;2023-04-15T11:15:39;7.20;;;4.30;;
809;SDS011;387;48.772;9.186;2023-04-15T11:18:18;9.60;;;4.83;;
809;SDS011;387;48.772;9.186;2023-04-15T11:20:47;10.23;;;4.40;;
809;SDS011;387;48.772;9.186;2023-04-15T11:23:34;10.60;;;5.27;;
809;SDS011;387;48.772;9.186;2023-04-15T11:26:00;8.07;;;4.80;;
809;SDS011;387;48.772;9.186;2023-04-15T11:28:29;8.97;;;4.90;;
809;SDS011;387;48.772;9.186;2023-04-15T11:30:56;7.07;;;4.07;;
809;SDS011;387;48.772;9.186;2023-04-15T11:33:22;6.20;;;4.13;;
809;SDS011;387;48.772;9.186;2023-04-15T11:35:49;6.20;;;3.87;;
809;SDS011;387;48.772;9.186;2023-04-15T11:38:16;8.13;;;3.63;;
809;SDS011;387;48.772;9.186;2023-04-15T11:40:42;10.77;;;4.33;;
809;SDS011;387;48.772;9.186;2023-04-15T11:43:09;9.50;;;3.70;;
809;SDS011;387;48.772;9.186;2023-04-15T11:45:36;12.30;;;5.10;;
809;SDS011;387;48.772;9.186;2023-04-15T11:48:11;8.77;;;5.53;;
809;SDS011;387;48.772;9.186;2023-04-15T11:50:38;9.30;;;4.43;;
809;SDS011;387;48.772;9.186;2023-04-15T11:53:10;5.67;;;4.00;;
809;SDS011;387;48.772;9.186;2023-04-15T11:55:55;9.80;;;4.60;;
809;SDS011;387;48.772;9.186;2023-04-15T11:58:21;8.07;;;4.37;;
809;SDS011;387;48.772;9.186;2023-04-15T12:00:49;7.63;;;4.40;;
809;SDS011;387;48.772;9.186;2023-04-15T12:11:49;6.07;;;4.70;;
809;SDS011;387;48.772;9.186;2023-04-15T12:14:26;6.63;;;4.30;;
809;SDS011;387;48.772;9.186;2023-04-15T12:16:56;9.60;;;4.90;;
809;SDS011;387;48.772;9.186;2023-04-15T12:22:02;8.77;;;4.50;;
809;SDS011;387;48.772;9.186;2023-04-15T12:24:35;7.80;;;4.97;;
809;SDS011;387;48.772;9.186;2023-04-15T12:27:03;7.90;;;5.30;;
809;SDS011;387;48.772;9.186;2023-04-15T12:29:30;8.57;;;4.33;;
809;SDS011;387;48.772;9.186;2023-04-15T12:32:02;12.43;;;4.90;;
809;SDS011;387;48.772;9.186;2023-04-15T12:34:36;10.13;;;4.30;;
809;SDS011;387;48.772;9.186;2023-04-15T12:37:02;7.77;;;4.33;;
809;SDS011;387;48.772;9.186;2023-04-15T12:39:30;9.80;;;4.90;;
809;SDS011;387;48.772;9.186;2023-04-15T12:41:58;11.10;;;5.53;;
809;SDS011;387;48.772;9.186;2023-04-15T12:44:24;12.30;;;5.43;;
809;SDS011;387;48.772;9.186;2023-04-15T12:46:51;15.23;;;5.67;;
809;SDS011;387;48.772;9.186;2023-04-15T12:49:17;9.57;;;5.73;;
809;SDS011;387;48.772;9.186;2023-04-15T12:51:47;7.93;;;5.07;;
809;SDS011;387;48.772;9.186;2023-04-15T12:54:14;10.00;;;5.70;;
809;SDS011;387;48.772;9.186;2023-04-15T12:56:41;11.10;;;6.40;;
809;SDS011;387;48.772;9.186;2023-04-15T12:59:07;6.83;;;4.53;;
809;SDS011;387;48.772;9.186;2023-04-15T13:01:32;8.83;;;4.50;;
809;SDS011;387;48.772;9.186;2023-04-15T13:03:58;6.70;;;4.40;;
809;SDS011;387;48.772;9.186;2023-04-15T13:06:24;10.17;;;6.20;;
809;SDS011;387;48.772;9.186;2023-04-15T13:08:49;8.80;;;4.83;;
809;SDS011;387;48.772;9.186;2023-04-15T13:11:15;5.80;;;3.53;;
809;SDS011;387;48.772;9.186;2023-04-15T13:13:41;8.23;;;4.50;;
809;SDS011;387;48.772;9.186;2023-04-15T13:16:07;10.53;;;4.30;;
809;SDS011;387;48.772;9.186;2023-04-15T13:18:33;5.90;;;3.60;;
809;SDS011;387;48.772;9.186;2023-04-15T13:20:59;5.93;;;3.23;;
809;SDS011;387;48.772;9.186;2023-04-15T13:23:25;7.77;;;3.67;;
809;SDS011;387;48.772;9.186;2023-04-15T13:25:51;9.53;;;3.60;;
809;SDS011;387;48.772;9.186;2023-04-15T13:28:17;7.03;;;3.57;;
809;SDS011;387;48.772;9.186;2023-04-15T13:30:42;5.87;;;3.43;;
809;SDS011;387;48.772;9.186;2023-04-15T13:33:09;5.03;;;3.00;;
809;SDS011;387;48.772;9.186;2023-04-15T13:35:35;7.27;;;4.00;;
809;SDS011;387;48.772;9.186;2023-04-15T13:38:01;6.73;;;3.30;;
809;SDS011;387;48.772;9.186;2023-04-15T13:40:27;5.73;;;3.40;;
809;SDS011;387;48.772;9.186;2023-04-15T13:42:52;5.60;;;3.27;;
809;SDS011;387;48.772;9.186;2023-04-15T13:45:18;3.77;;;2.80;;
809;SDS011;387;48.772;9.186;2023-04-15T13:47:43;6.37;;;3.20;;
809;SDS011;387;48.772;9.186;2023-04-15T13:50:09;3.13;;;2.40;;
809;SDS011;387;48.772;9.186;2023-04-15T13:52:35;3.47;;;2.30;;
809;SDS011;387;48.772;9.186;2023-04-15T13:55:01;3.40;;;2.40;;
809;SDS011;387;48.772;9.186;2023-04-15T13:57:27;3.50;;;2.20;;
809;SDS011;387;48.772;9.186;2023-04-15T13:59:53;3.80;;;2.30;;
809;SDS011;387;48.772;9.186;2023-04-15T14:02:20;3.17;;;2.10;;
809;SDS011;387;48.772;9.186;2023-04-15T14:04:47;6.10;;;2.93;;
809;SDS011;387;48.772;9.186;2023-04-15T14:07:12;5.37;;;2.70;;
809;SDS011;387;48.772;9.186;2023-04-15T14:09:38;3.70;;;2.33;;
809;SDS011;387;48.772;9.186;2023-04-15T14:12:03;4.53;;;2.10;;
809;SDS011;387;48.772;9.186;2023-04-15T14:14:29;3.97;;;2.50;;
809;SDS011;387;48.772;9.186;2023-04-15T14:16:55;4.63;;;2.00;;
809;SDS011;387;48.772;9.186;2023-04-15T14:19:21;3.87;;;2.40;;
809;SDS011;387;48.772;9.186;2023-04-15T14:21:48;4.87;;;2.20;;
809;SDS011;387;48.772;9.186;2023-04-15T14:24:13;4.07;;;2.70;;
809;SDS011;387;48.772;9.186;2023-04-15T14:26:39;4.13;;;2.43;;
809;SDS011;387;48.772;9.186;2023-04-15T14:29:04;9.43;;;2.20;;
809;SDS011;387;48.772;9.186;2023-04-15T14:31:30;3.37;;;2.23;;
809;SDS011;387;48.772;9.186;2023-04-15T14:33:56;3.37;;;2.20;;
809;SDS011;387;48.772;9.186;2023-04-15T14:36:21;2.87;;;2.20;;
809;SDS011;387;48.772;9.186;2023-04-15T14:38:47;5.30;;;2.37;;
809;SDS011;387;48.772;9.186;2023-04-15T14:41:12;3.00;;;1.83;;
809;SDS011;387;48.772;9.186;2023-04-15T14:43:38;3.40;;;2.07;;
809;SDS011;387;48.772;9.186;2023-04-15T14:46:04;3.60;;;1.93;;
809;SDS011;387;48.772;9.186;2023-04-15T14:48:29;5.63;;;2.27;;
809;SDS011;387;48.772;9.186;2023-04-15T14:50:56;5.30;;;1.90;;
809;SDS011;387;48.772;9.186;2023-04-15T14:53:22;14.87;;;1.80;;
809;SDS011;387;48.772;9.186;2023-04-15T14:55:47;2.37;;;1.77;;
809;SDS011;387;48.772;9.186;2023-04-15T14:58:13;3.60;;;2.60;;
809;SDS011;387;48.772;9.186;2023-04-15T15:00:38;3.27;;;2.30;;
809;SDS011;387;48.772;9.186;2023-04-15T15:03:06;3.43;;;2.10;;
809;SDS011;387;48.772;9.186;2023-04-15T15:05:40;2.20;;;2.10;;
809;SDS011;387;48.772;9.186;2023-04-15T15:08:07;5.40;;;2.57;;
809;SDS011;387;48.772;9.186;2023-04-15T15:10:33;3.40;;;2.37;;
809;SDS011;387;48.772;9.186;2023-04-15T15:13:00;4.43;;;2.70;;
809;SDS011;387;48.772;9.186;2023-04-15T15:15:28;3.80;;;2.10;;
809;SDS011;387;48.772;9.186;2023-04-15T15:17:53;4.10;;;2.60;;
809;SDS011;387;48.772;9.186;2023-04-15T15:20:19;3.20;;;2.70;;
809;SDS011;387;48.772;9.186;2023-04-15T15:22:45;3.80;;;2.23;;
809;SDS011;387;48.772;9.186;2023-04-15T15:25:10;3.87;;;2.53;;
809;SDS011;387;48.772;9.186;2023-04-15T15:27:36;5.47;;;2.83;;
809;SDS011;387;48.772;9.186;2023-04-15T15:30:02;3.40;;;2.20;;
809;SDS011;387;48.772;9.186;2023-04-15T15:32:28;10.27;;;2.50;;
809;SDS011;387;48.772;9.186;2023-04-15T15:34:53;4.90;;;2.70;;
809;SDS011;387;48.772;9.186;2023-04-15T15:37:19;5.03;;;2.40;;
809;SDS011;387;48.772;9.186;2023-04-15T15:39:45;4.30;;;2.63;;
809;SDS011;387;48.772;9.186;2023-04-15T15:42:12;4.10;;;2.37;;
809;SDS011;387;48.772;9.186;2023-04-15T15:44:37;6.83;;;2.70;;
809;SDS011;387;48.772;9.186;2023-04-15T15:47:04;7.10;;;3.90;;
809;SDS011;387;48.772;9.186;2023-04-15T15:49:29;5.20;;;2.63;;
809;SDS011;387;48.772;9.186;2023-04-15T15:51:55;3.70;;;2.33;;
809;SDS011;387;48.772;9.186;2023-04-15T15:54:21;5.80;;;2.70;;
809;SDS011;387;48.772;9.186;2023-04-15T15:56:47;3.13;;;2.50;;
809;SDS011;387;48.772;9.186;2023-04-15T15:59:12;3.83;;;2.60;;